Time;durP1;ratioP1;P1;durP2;ratioP2;P2;SDS_P1;SDS_P2;PMS_P1;PMS_P2;Temp;Humidity;BMP_temperature;BMP_pressure;BME280_temperature;BME280_humidity;BME280_pressure;Samples;Min_cycle;Max_cycle;Signal;HPM_P1;HPM_P2
2022/10/21 00:01:17;;;;;;;37.20;19.80;;;11.40;99.90;;;;;;5016131;28;20045;-69
2022/10/21 00:03:44;;;;;;;34.77;19.73;;;11.40;99.90;;;;;;5018782;28;20605;-69
2022/10/21 00:06:10;;;;;;;32.30;18.80;;;11.40;99.90;;;;;;5012389;28;20053;-69
2022/10/21 00:08:37;;;;;;;35.63;19.37;;;11.40;99.90;;;;;;5032274;28;20279;-69
2022/10/21 00:11:05;;;;;;;35.97;19.03;;;11.40;99.90;;;;;;5025592;28;20307;-69
2022/10/21 00:13:33;;;;;;;36.17;19.30;;;11.40;99.90;;;;;;5025258;28;20379;-69
2022/10/21 00:16:04;;;;;;;32.17;19.10;;;11.40;99.90;;;;;;5012566;28;20295;-69
2022/10/21 00:18:31;;;;;;;35.97;18.83;;;11.40;99.90;;;;;;5008085;28;20283;-69
2022/10/21 00:20:56;;;;;;;33.67;19.10;;;11.30;99.90;;;;;;5029742;28;20296;-69
2022/10/21 00:23:22;;;;;;;34.23;19.80;;;11.30;99.90;;;;;;5033060;28;20904;-69
2022/10/21 00:25:48;;;;;;;37.17;20.23;;;11.30;99.90;;;;;;5005099;28;20038;-69
2022/10/21 00:28:14;;;;;;;31.87;20.07;;;11.30;99.90;;;;;;5030133;28;20464;-69
2022/10/21 00:30:44;;;;;;;33.30;19.10;;;11.30;99.90;;;;;;5024908;28;20063;-69
2022/10/21 00:33:10;;;;;;;37.07;20.57;;;11.30;99.90;;;;;;5023868;28;20052;-69
2022/10/21 00:35:36;;;;;;;36.83;19.93;;;11.30;99.90;;;;;;5019528;28;20292;-69
2022/10/21 00:38:02;;;;;;;34.60;20.33;;;11.20;99.90;;;;;;5030809;28;20276;-69
2022/10/21 00:40:28;;;;;;;31.07;20.13;;;11.20;99.90;;;;;;5017823;28;20041;-69
2022/10/21 00:42:53;;;;;;;37.37;19.30;;;11.20;99.90;;;;;;5028483;28;20132;-69
2022/10/21 00:45:23;;;;;;;34.53;19.43;;;11.20;99.90;;;;;;5029261;28;20052;-69
2022/10/21 00:47:54;;;;;;;33.53;19.70;;;11.10;99.90;;;;;;5019725;28;20466;-69
2022/10/21 00:50:37;;;;;;;37.53;19.50;;;11.10;99.90;;;;;;5024388;28;20280;-69
2022/10/21 00:53:05;;;;;;;37.20;19.43;;;11.10;99.90;;;;;;5028105;28;20323;-69
2022/10/21 00:55:35;;;;;;;35.23;19.63;;;11.00;99.90;;;;;;5027153;28;20300;-69
2022/10/21 00:58:02;;;;;;;32.97;19.10;;;11.00;99.90;;;;;;5007770;28;20394;-69
2022/10/21 01:00:28;;;;;;;32.53;19.03;;;11.00;99.90;;;;;;5011014;28;20302;-69
2022/10/21 01:02:54;;;;;;;36.30;19.67;;;10.90;99.90;;;;;;5024200;28;20287;-69
2022/10/21 01:05:21;;;;;;;28.17;17.37;;;10.90;99.90;;;;;;5024156;28;20342;-69
2022/10/21 01:07:48;;;;;;;36.83;19.43;;;10.90;99.90;;;;;;5006988;28;20371;-69
2022/10/21 01:10:15;;;;;;;35.47;18.47;;;10.80;99.90;;;;;;5013076;28;20349;-69
2022/10/21 01:12:47;;;;;;;37.90;19.40;;;10.80;99.90;;;;;;5026891;28;20811;-69
2022/10/21 01:15:49;;;;;;;37.60;19.13;;;10.80;99.90;;;;;;5026628;28;20785;-69
2022/10/21 01:18:33;;;;;;;34.60;18.50;;;10.80;99.90;;;;;;5023732;28;20760;-69
2022/10/21 01:21:08;;;;;;;35.53;18.67;;;10.80;99.90;;;;;;5010829;28;20651;-69
2022/10/21 01:23:52;;;;;;;39.75;20.98;;;10.90;99.90;;;;;;5024925;28;20076;-69
2022/10/21 01:26:40;;;;;;;45.33;21.03;;;10.90;99.90;;;;;;5026723;28;20111;-69
2022/10/21 01:29:47;;;;;;;39.87;19.97;;;11.00;99.90;;;;;;5023978;28;20283;-69
2022/10/21 01:32:37;;;;;;;38.77;21.43;;;11.00;99.90;;;;;;4928173;29;20303;-69
2022/10/21 01:35:10;;;;;;;39.57;20.87;;;11.10;99.90;;;;;;5018756;28;20287;-69
2022/10/21 01:37:43;;;;;;;37.50;20.53;;;11.10;99.90;;;;;;5024874;28;20280;-69
2022/10/21 01:40:21;;;;;;;44.93;21.13;;;11.10;99.90;;;;;;5022745;28;20363;-69
2022/10/21 01:43:06;;;;;;;37.40;20.83;;;11.20;99.90;;;;;;5029143;28;20337;-69
2022/10/21 01:45:31;;;;;;;39.97;20.63;;;11.20;99.90;;;;;;5023116;28;20287;-69
2022/10/21 01:48:12;;;;;;;40.03;21.37;;;11.20;99.90;;;;;;5027339;28;20280;-69
2022/10/21 01:50:51;;;;;;;38.73;20.63;;;11.20;99.90;;;;;;5028834;28;20047;-69
2022/10/21 01:53:18;;;;;;;38.23;20.33;;;11.30;99.90;;;;;;5017821;28;20772;-69
2022/10/21 01:55:44;;;;;;;41.13;21.67;;;11.30;99.90;;;;;;5022444;28;20399;-69
2022/10/21 01:58:20;;;;;;;39.43;21.17;;;11.40;99.90;;;;;;4995472;28;20272;-69
2022/10/21 02:00:48;;;;;;;39.30;21.37;;;11.50;99.90;;;;;;5024755;28;20863;-69
2022/10/21 02:03:19;;;;;;;42.67;22.67;;;11.50;99.90;;;;;;5023571;28;20366;-67
2022/10/21 02:05:45;;;;;;;42.47;22.17;;;11.60;99.90;;;;;;5032725;28;20802;-67
2022/10/21 02:08:11;;;;;;;45.23;22.80;;;11.80;99.90;;;;;;5021881;28;20311;-67
2022/10/21 02:10:41;;;;;;;40.73;22.87;;;11.80;99.90;;;;;;5021605;28;20482;-67
2022/10/21 02:13:10;;;;;;;40.27;22.30;;;11.90;99.90;;;;;;5025609;28;20076;-67
2022/10/21 02:15:38;;;;;;;37.37;21.60;;;12.00;99.90;;;;;;5023764;28;20284;-67
2022/10/21 02:18:07;;;;;;;41.50;22.70;;;12.10;99.90;;;;;;5002359;28;20350;-67
2022/10/21 02:20:40;;;;;;;41.43;23.30;;;12.20;99.90;;;;;;5020701;28;20276;-69
2022/10/21 02:23:10;;;;;;;41.90;22.63;;;12.20;99.90;;;;;;5014246;28;20805;-69
2022/10/21 02:25:39;;;;;;;39.37;23.03;;;12.30;99.90;;;;;;5026239;28;20279;-69
2022/10/21 02:28:06;;;;;;;41.00;21.63;;;12.30;99.90;;;;;;5024010;28;20280;-69
2022/10/21 02:30:39;;;;;;;45.37;22.60;;;12.40;99.90;;;;;;5023160;28;20930;-69
2022/10/21 02:33:22;;;;;;;39.17;21.90;;;12.40;99.90;;;;;;5022976;28;20284;-69
2022/10/21 02:35:56;;;;;;;42.20;21.27;;;12.40;99.90;;;;;;5022530;28;20280;-70
2022/10/21 02:38:31;;;;;;;36.67;20.95;;;12.40;99.90;;;;;;5022814;28;20280;-70
2022/10/21 02:41:12;;;;;;;38.42;21.27;;;12.40;99.90;;;;;;5023112;28;20088;-70
2022/10/21 02:43:39;;;;;;;38.43;19.20;;;12.40;99.90;;;;;;5018205;28;20049;-70
2022/10/21 02:46:08;;;;;;;35.67;20.80;;;12.40;99.90;;;;;;5027462;28;20718;-70
2022/10/21 02:48:35;;;;;;;39.00;20.70;;;12.40;99.90;;;;;;5022823;28;20276;-70
2022/10/21 02:51:04;;;;;;;38.50;19.53;;;12.40;99.90;;;;;;5007121;28;20354;-69
2022/10/21 02:53:29;;;;;;;40.33;21.47;;;12.40;99.90;;;;;;5026936;28;20326;-69
2022/10/21 02:55:55;;;;;;;43.17;21.23;;;12.50;99.90;;;;;;5026335;28;20288;-69
2022/10/21 02:58:21;;;;;;;38.10;19.10;;;12.50;99.90;;;;;;5022859;28;20099;-70
2022/10/21 03:00:47;;;;;;;37.60;20.57;;;12.50;99.90;;;;;;5009656;28;20303;-70
2022/10/21 03:03:13;;;;;;;42.07;21.60;;;12.50;99.90;;;;;;4991148;28;20069;-70
2022/10/21 03:05:38;;;;;;;40.97;21.70;;;12.50;99.90;;;;;;5005805;28;20202;-70
2022/10/21 03:08:04;;;;;;;45.90;21.07;;;12.50;99.90;;;;;;5006821;28;20108;-70
2022/10/21 03:10:30;;;;;;;39.23;20.93;;;12.60;99.90;;;;;;5030061;28;20077;-70
2022/10/21 03:12:56;;;;;;;40.63;21.73;;;12.60;99.90;;;;;;5010678;28;20367;-70
2022/10/21 03:15:21;;;;;;;39.73;21.40;;;12.60;99.90;;;;;;5025873;28;20502;-70
2022/10/21 03:17:47;;;;;;;40.20;21.33;;;12.70;99.90;;;;;;5002091;28;20050;-70
2022/10/21 03:20:13;;;;;;;38.10;21.03;;;12.70;99.90;;;;;;5026349;28;20048;-70
2022/10/21 03:22:39;;;;;;;45.23;21.90;;;12.70;99.90;;;;;;5030297;28;20068;-70
2022/10/21 03:25:05;;;;;;;37.33;19.93;;;12.70;99.90;;;;;;5033079;28;20346;-70
2022/10/21 03:27:31;;;;;;;37.60;20.37;;;12.70;99.90;;;;;;5028319;28;20041;-70
2022/10/21 03:29:57;;;;;;;42.03;20.90;;;12.70;99.90;;;;;;5049341;28;20818;-70
2022/10/21 03:32:23;;;;;;;32.93;19.13;;;12.70;99.90;;;;;;5026299;28;20049;-70
2022/10/21 03:34:48;;;;;;;35.17;18.00;;;12.70;99.90;;;;;;5026069;28;20041;-70
2022/10/21 03:37:14;;;;;;;33.33;18.60;;;12.70;99.90;;;;;;5025400;28;20072;-70
2022/10/21 03:39:40;;;;;;;34.63;17.83;;;12.70;99.90;;;;;;5026136;28;20030;-70
2022/10/21 03:42:06;;;;;;;34.03;18.07;;;12.80;99.90;;;;;;5026413;28;20041;-70
2022/10/21 03:44:31;;;;;;;36.40;18.40;;;12.80;99.90;;;;;;5029026;28;20570;-70
2022/10/21 03:46:57;;;;;;;34.10;18.10;;;12.80;99.90;;;;;;5034145;28;20033;-70
2022/10/21 03:49:23;;;;;;;32.67;17.97;;;12.80;99.90;;;;;;5033930;28;20051;-70
2022/10/21 03:51:48;;;;;;;29.63;17.73;;;12.80;99.90;;;;;;4993078;28;20405;-70
2022/10/21 03:54:14;;;;;;;38.63;18.67;;;12.80;99.90;;;;;;5015736;28;20254;-70
2022/10/21 03:56:40;;;;;;;37.47;18.80;;;12.90;99.90;;;;;;5025245;28;20052;-70
2022/10/21 03:59:06;;;;;;;30.73;17.77;;;12.90;99.90;;;;;;5025676;28;20045;-70
2022/10/21 04:01:32;;;;;;;35.67;17.07;;;12.90;99.90;;;;;;5022353;28;20476;-70
2022/10/21 04:03:57;;;;;;;34.37;17.70;;;12.90;99.90;;;;;;5031874;28;20049;-70
2022/10/21 04:06:23;;;;;;;35.80;17.83;;;12.90;99.90;;;;;;5025300;28;20076;-70
2022/10/21 04:08:49;;;;;;;33.30;18.23;;;12.90;99.90;;;;;;5024590;28;20041;-70
2022/10/21 04:11:14;;;;;;;35.63;18.53;;;13.00;99.90;;;;;;5029017;28;20512;-70
2022/10/21 04:13:40;;;;;;;32.63;17.87;;;13.00;99.90;;;;;;5019700;28;20120;-70
2022/10/21 04:16:09;;;;;;;33.70;17.90;;;13.00;99.90;;;;;;5025735;28;20041;-70
2022/10/21 04:18:35;;;;;;;34.13;18.90;;;13.00;99.90;;;;;;5021610;28;20057;-70
2022/10/21 04:21:00;;;;;;;31.90;18.43;;;13.00;99.90;;;;;;5025670;28;20799;-70
2022/10/21 04:23:26;;;;;;;32.70;19.27;;;13.00;99.90;;;;;;5033163;28;20049;-70
2022/10/21 04:25:52;;;;;;;35.20;19.27;;;13.00;99.90;;;;;;4998397;28;20042;-70
2022/10/21 04:28:17;;;;;;;33.00;18.87;;;13.00;99.90;;;;;;5029652;28;20046;-70
2022/10/21 04:30:43;;;;;;;35.20;18.70;;;13.00;99.90;;;;;;5008958;28;20058;-69
2022/10/21 04:33:09;;;;;;;35.17;18.83;;;13.00;99.90;;;;;;5016204;28;20053;-69
2022/10/21 04:35:34;;;;;;;28.70;17.40;;;13.00;99.90;;;;;;5029144;28;20311;-69
2022/10/21 04:38:00;;;;;;;32.77;19.87;;;13.00;99.90;;;;;;5027988;28;20079;-70
2022/10/21 04:40:26;;;;;;;34.70;19.07;;;12.90;99.90;;;;;;5009307;28;20048;-70
2022/10/21 04:42:52;;;;;;;33.73;18.50;;;12.90;99.90;;;;;;5030857;28;20036;-70
2022/10/21 04:45:18;;;;;;;37.10;20.77;;;12.90;99.90;;;;;;5030127;28;20284;-70
2022/10/21 04:47:44;;;;;;;36.93;19.97;;;12.90;99.90;;;;;;5030297;28;20057;-70
2022/10/21 04:50:10;;;;;;;38.80;20.43;;;12.90;99.90;;;;;;5013159;28;20280;-70
2022/10/21 04:52:36;;;;;;;35.33;19.87;;;12.90;99.90;;;;;;5032358;28;20511;-70
2022/10/21 04:55:02;;;;;;;37.73;19.87;;;12.90;99.90;;;;;;5024816;28;20140;-70
2022/10/21 04:57:27;;;;;;;34.63;18.70;;;12.80;99.90;;;;;;5023689;28;20302;-70
2022/10/21 04:59:53;;;;;;;33.97;19.47;;;12.70;99.90;;;;;;5008379;28;20386;-70
2022/10/21 05:02:19;;;;;;;39.37;20.07;;;12.70;99.90;;;;;;4992003;28;20449;-70
2022/10/21 05:04:44;;;;;;;35.60;19.17;;;12.60;99.90;;;;;;5007614;28;20519;-70
2022/10/21 05:07:10;;;;;;;35.63;19.43;;;12.60;99.90;;;;;;5013259;28;20049;-70
2022/10/21 05:09:36;;;;;;;33.87;19.57;;;12.50;99.90;;;;;;5024549;28;20496;-69
2022/10/21 05:12:02;;;;;;;37.30;19.47;;;12.50;99.90;;;;;;5014561;28;20565;-69
2022/10/21 05:14:27;;;;;;;40.33;21.27;;;12.40;99.90;;;;;;5024573;28;20567;-69
2022/10/21 05:16:53;;;;;;;37.57;21.27;;;12.40;99.90;;;;;;5023219;28;20397;-70
2022/10/21 05:19:19;;;;;;;36.83;20.40;;;12.30;99.90;;;;;;5028464;28;20049;-70
2022/10/21 05:21:48;;;;;;;43.33;22.17;;;12.30;99.90;;;;;;5024574;28;20130;-70
2022/10/21 05:24:15;;;;;;;51.93;23.10;;;12.30;99.90;;;;;;5011358;28;20168;-69
2022/10/21 05:26:41;;;;;;;47.10;23.10;;;12.30;99.90;;;;;;5020740;28;20358;-69
2022/10/21 05:29:07;;;;;;;43.63;23.23;;;12.30;99.90;;;;;;4991327;28;20276;-69
2022/10/21 05:31:32;;;;;;;47.80;25.00;;;12.30;99.90;;;;;;5030513;28;20161;-69
2022/10/21 05:33:58;;;;;;;50.83;24.03;;;12.20;99.90;;;;;;5027790;28;20482;-69
2022/10/21 05:36:24;;;;;;;48.60;23.97;;;12.20;99.90;;;;;;5013488;28;20041;-69
2022/10/21 05:38:50;;;;;;;47.97;23.77;;;12.20;99.90;;;;;;5026285;28;20455;-69
2022/10/21 05:41:15;;;;;;;47.63;23.20;;;12.20;99.90;;;;;;5007243;28;20045;-69
2022/10/21 05:43:42;;;;;;;47.23;23.67;;;12.10;99.90;;;;;;5011917;28;20053;-69
2022/10/21 05:46:08;;;;;;;46.67;23.33;;;12.20;99.90;;;;;;5028051;28;20045;-69
2022/10/21 05:48:35;;;;;;;48.13;23.37;;;12.10;99.90;;;;;;5023640;28;20354;-69
2022/10/21 05:51:01;;;;;;;39.53;23.23;;;12.10;99.90;;;;;;5026995;28;20847;-69
2022/10/21 05:53:27;;;;;;;46.40;23.60;;;12.10;99.90;;;;;;5027718;28;20313;-70
2022/10/21 05:55:55;;;;;;;46.47;23.73;;;12.00;99.90;;;;;;5021986;28;20050;-69
2022/10/21 05:58:22;;;;;;;50.70;23.47;;;12.00;99.90;;;;;;5023289;28;20276;-69
2022/10/21 06:00:48;;;;;;;51.00;25.40;;;12.00;99.90;;;;;;5023701;28;20287;-69
2022/10/21 06:03:14;;;;;;;57.10;26.43;;;11.90;99.90;;;;;;5028756;28;20276;-69
2022/10/21 06:05:39;;;;;;;54.33;25.03;;;11.90;99.90;;;;;;5030839;28;20800;-69
2022/10/21 06:08:05;;;;;;;46.37;24.00;;;11.90;99.90;;;;;;5024046;28;20045;-69
2022/10/21 06:10:31;;;;;;;54.13;24.37;;;11.90;99.90;;;;;;5013724;28;20037;-68
2022/10/21 06:12:56;;;;;;;52.27;25.40;;;11.80;99.90;;;;;;5022832;28;20320;-70
2022/10/21 06:15:22;;;;;;;52.80;24.17;;;11.80;99.90;;;;;;5018245;28;20072;-70
2022/10/21 06:17:48;;;;;;;53.07;25.27;;;11.80;99.90;;;;;;5000988;28;20092;-70
2022/10/21 06:20:13;;;;;;;50.70;24.57;;;11.80;99.90;;;;;;5022330;28;20436;-70
2022/10/21 06:22:39;;;;;;;54.50;25.17;;;11.90;99.90;;;;;;5027004;28;20215;-70
2022/10/21 06:25:05;;;;;;;57.23;25.60;;;11.90;99.90;;;;;;5029936;28;20053;-70
2022/10/21 06:27:31;;;;;;;52.43;25.40;;;11.90;99.90;;;;;;5025013;28;20577;-70
2022/10/21 06:29:56;;;;;;;69.13;28.40;;;12.00;99.90;;;;;;5023569;28;20049;-70
2022/10/21 06:32:22;;;;;;;62.50;26.93;;;12.10;99.90;;;;;;5023155;28;20045;-70
2022/10/21 06:34:48;;;;;;;58.27;25.67;;;12.20;99.90;;;;;;5023549;28;20403;-70
2022/10/21 06:37:13;;;;;;;58.43;26.60;;;12.20;99.90;;;;;;5009673;28;20083;-70
2022/10/21 06:39:39;;;;;;;57.30;25.80;;;12.30;99.90;;;;;;5007164;28;20396;-70
2022/10/21 06:42:05;;;;;;;59.90;27.37;;;12.40;99.90;;;;;;5023411;28;20505;-70
2022/10/21 06:44:30;;;;;;;66.90;27.87;;;12.40;99.90;;;;;;5023471;28;20049;-70
2022/10/21 06:46:56;;;;;;;60.63;26.17;;;12.40;99.90;;;;;;5022760;28;20109;-70
2022/10/21 06:49:22;;;;;;;58.10;24.93;;;12.30;99.90;;;;;;5006716;28;20038;-70
2022/10/21 06:51:47;;;;;;;53.07;24.50;;;12.30;99.90;;;;;;5023086;28;20139;-70
2022/10/21 06:54:13;;;;;;;57.53;24.60;;;12.30;99.90;;;;;;5025299;28;20367;-70
2022/10/21 06:56:39;;;;;;;51.37;25.40;;;12.20;99.90;;;;;;5026358;28;20064;-70
2022/10/21 06:59:04;;;;;;;52.03;24.80;;;12.20;99.90;;;;;;5026466;28;20064;-71
2022/10/21 07:01:35;;;;;;;55.77;25.07;;;12.20;99.90;;;;;;5027181;28;20057;-70
2022/10/21 07:04:02;;;;;;;59.63;24.93;;;12.20;99.90;;;;;;5006921;28;20072;-70
2022/10/21 07:06:28;;;;;;;52.97;24.47;;;12.20;99.90;;;;;;5026583;28;20594;-70
2022/10/21 07:08:54;;;;;;;53.17;22.93;;;12.10;99.90;;;;;;5026177;28;20280;-70
2022/10/21 07:11:27;;;;;;;45.40;22.93;;;12.10;99.90;;;;;;5025899;28;21109;-70
2022/10/21 07:13:53;;;;;;;61.70;25.37;;;12.20;99.90;;;;;;5026473;28;20286;-70
2022/10/21 07:16:25;;;;;;;44.17;22.73;;;12.20;99.90;;;;;;5011127;28;20597;-70
2022/10/21 07:18:50;;;;;;;50.07;24.73;;;12.20;99.90;;;;;;5025894;28;20041;-70
2022/10/21 07:21:19;;;;;;;47.00;22.03;;;12.20;99.90;;;;;;5026807;28;20286;-70
2022/10/21 07:23:45;;;;;;;54.47;23.40;;;12.20;99.90;;;;;;5023184;28;20100;-70
2022/10/21 07:26:12;;;;;;;43.17;22.73;;;12.20;99.90;;;;;;5022664;28;20396;-70
2022/10/21 07:28:39;;;;;;;51.00;23.03;;;12.20;99.90;;;;;;5008875;28;20770;-70
2022/10/21 07:31:05;;;;;;;47.27;23.47;;;12.30;99.90;;;;;;5026407;28;20845;-70
2022/10/21 07:33:33;;;;;;;49.83;21.83;;;12.30;99.90;;;;;;5026401;28;20547;-70
2022/10/21 07:36:08;;;;;;;40.63;21.47;;;12.30;99.90;;;;;;5026497;28;20637;-70
2022/10/21 07:38:34;;;;;;;;;;;12.40;99.90;;;;;;5029100;28;20302;-70
2022/10/21 07:41:00;;;;;;;42.63;21.53;;;12.40;99.90;;;;;;5025869;28;20396;-70
2022/10/21 07:43:25;;;;;;;41.23;22.87;;;12.40;99.90;;;;;;5025541;28;20115;-71
2022/10/21 07:45:51;;;;;;;40.57;21.00;;;12.50;99.90;;;;;;5025975;28;20288;-70
2022/10/21 07:48:18;;;;;;;40.77;21.77;;;12.50;99.90;;;;;;5029935;28;20044;-70
2022/10/21 07:50:44;;;;;;;39.83;21.07;;;12.60;99.90;;;;;;5009760;28;20120;-70
2022/10/21 07:53:09;;;;;;;42.90;21.97;;;12.60;99.90;;;;;;5025702;28;20276;-70
2022/10/21 07:55:35;;;;;;;38.77;20.10;;;12.60;99.90;;;;;;5026610;28;20649;-70
2022/10/21 07:58:01;;;;;;;37.17;21.13;;;12.70;99.90;;;;;;5005761;28;20495;-70
2022/10/21 08:00:27;;;;;;;41.47;19.33;;;12.70;99.90;;;;;;5026655;28;20060;-70
2022/10/21 08:02:54;;;;;;;42.60;21.13;;;12.70;99.90;;;;;;5003357;28;20556;-70
2022/10/21 08:05:20;;;;;;;41.53;20.43;;;12.80;99.90;;;;;;5023409;28;20038;-70
2022/10/21 08:07:47;;;;;;;40.63;20.60;;;12.80;99.90;;;;;;5026498;28;20787;-70
2022/10/21 08:10:12;;;;;;;37.43;20.53;;;12.80;99.90;;;;;;5025897;28;20287;-70
2022/10/21 08:12:38;;;;;;;39.77;21.27;;;12.80;99.90;;;;;;5022985;28;20536;-70
2022/10/21 08:15:04;;;;;;;38.10;19.73;;;12.90;99.90;;;;;;5021463;28;20048;-70
2022/10/21 08:17:30;;;;;;;42.70;21.07;;;12.90;99.90;;;;;;5006390;28;20100;-70
2022/10/21 08:19:56;;;;;;;39.00;19.40;;;13.00;99.90;;;;;;5026490;28;20822;-69
2022/10/21 08:22:22;;;;;;;35.03;19.87;;;13.00;99.90;;;;;;5021160;28;20072;-69
2022/10/21 08:24:47;;;;;;;34.83;21.00;;;13.10;99.90;;;;;;5022021;28;20038;-69
2022/10/21 08:27:13;;;;;;;38.43;19.90;;;13.10;99.90;;;;;;5005663;28;20331;-70
2022/10/21 08:29:39;;;;;;;33.57;18.87;;;13.20;99.90;;;;;;5005517;28;20080;-68
2022/10/21 08:32:05;;;;;;;33.37;19.53;;;13.20;99.90;;;;;;5006108;28;20440;-68
2022/10/21 08:34:33;;;;;;;28.30;17.80;;;13.30;99.90;;;;;;5021659;28;20144;-69
2022/10/21 08:37:00;;;;;;;32.00;18.13;;;13.40;99.90;;;;;;5004629;28;20292;-69
2022/10/21 08:39:26;;;;;;;29.73;17.90;;;13.50;99.90;;;;;;5027794;28;20045;-69
2022/10/21 08:42:00;;;;;;;32.13;18.33;;;13.50;99.90;;;;;;5022215;28;20307;-69
2022/10/21 08:44:37;;;;;;;29.25;17.42;;;13.60;99.90;;;;;;5037199;28;20060;-69
2022/10/21 08:47:16;;;;;;;32.53;17.77;;;13.70;99.90;;;;;;5019662;28;20048;-69
2022/10/21 08:49:45;;;;;;;27.87;16.40;;;13.80;99.90;;;;;;5014799;28;20307;-69
2022/10/21 08:52:18;;;;;;;34.03;17.70;;;13.80;99.90;;;;;;5018824;28;20308;-69
2022/10/21 08:54:46;;;;;;;30.67;16.03;;;13.90;99.90;;;;;;5020009;28;20346;-69
2022/10/21 08:57:13;;;;;;;23.47;15.40;;;14.00;99.90;;;;;;5023728;28;20380;-69
2022/10/21 08:59:42;;;;;;;24.23;15.33;;;14.00;99.90;;;;;;5020615;28;20284;-69
2022/10/21 09:02:26;;;;;;;30.00;15.77;;;14.10;99.90;;;;;;5018075;28;20355;-69
2022/10/21 09:05:06;;;;;;;30.23;17.03;;;14.10;99.90;;;;;;5013818;28;20292;-69
2022/10/21 09:07:44;;;;;;;23.47;15.53;;;14.20;99.90;;;;;;5019194;28;20855;-69
2022/10/21 09:10:23;;;;;;;27.20;16.07;;;14.20;99.90;;;;;;5020654;28;20288;-69
2022/10/21 09:13:00;;;;;;;25.47;15.77;;;14.20;99.90;;;;;;5013214;28;20719;-69
2022/10/21 09:15:41;;;;;;;23.23;15.00;;;14.30;99.90;;;;;;5021289;28;20723;-69
2022/10/21 09:18:20;;;;;;;23.53;14.53;;;14.40;99.90;;;;;;5044067;28;20675;-69
2022/10/21 09:20:52;;;;;;;21.23;13.93;;;14.50;99.90;;;;;;5023829;28;20304;-69
2022/10/21 09:23:34;;;;;;;22.63;14.47;;;14.50;99.90;;;;;;5021138;28;20285;-69
2022/10/21 09:26:20;;;;;;;20.57;13.33;;;14.50;99.90;;;;;;5022653;28;20328;-69
2022/10/21 09:28:47;;;;;;;21.80;13.70;;;14.60;99.90;;;;;;5021295;28;20300;-69
2022/10/21 09:31:19;;;;;;;20.53;12.93;;;14.60;99.90;;;;;;5030231;28;20854;-69
2022/10/21 09:33:48;;;;;;;20.77;13.27;;;14.60;99.90;;;;;;5028817;28;20647;-69
2022/10/21 09:36:22;;;;;;;17.93;12.53;;;14.70;99.90;;;;;;5027111;28;20280;-69
2022/10/21 09:38:56;;;;;;;20.43;12.97;;;14.70;99.90;;;;;;5027045;28;20267;-69
2022/10/21 09:41:25;;;;;;;25.17;12.53;;;14.80;99.90;;;;;;5013321;28;20280;-68
2022/10/21 09:43:51;;;;;;;19.67;12.90;;;14.80;99.90;;;;;;5027707;28;20757;-69
2022/10/21 09:46:17;;;;;;;18.17;13.17;;;14.90;99.90;;;;;;5022651;28;20288;-69
2022/10/21 09:48:45;;;;;;;16.80;11.30;;;14.90;99.90;;;;;;5022546;28;20299;-69
2022/10/21 09:51:32;;;;;;;20.77;12.60;;;14.90;99.90;;;;;;5022995;28;20383;-69
2022/10/21 09:54:16;;;;;;;19.30;11.97;;;14.90;99.90;;;;;;5033820;28;20632;-69
2022/10/21 09:56:48;;;;;;;23.13;11.97;;;15.00;99.90;;;;;;5022235;28;20304;-69
2022/10/21 09:59:18;;;;;;;21.13;12.00;;;15.00;99.90;;;;;;5022482;28;20280;-69
2022/10/21 10:01:45;;;;;;;15.93;10.57;;;15.00;99.90;;;;;;5021982;28;20296;-70
2022/10/21 10:04:20;;;;;;;16.87;11.57;;;15.00;99.90;;;;;;5020840;28;20446;-69
2022/10/21 10:06:46;;;;;;;19.73;11.07;;;15.10;99.90;;;;;;5020661;28;20300;-69
2022/10/21 10:09:30;;;;;;;16.50;11.50;;;15.00;99.90;;;;;;5029506;28;20368;-69
2022/10/21 10:12:03;;;;;;;21.17;11.77;;;15.10;99.90;;;;;;5031138;28;20124;-69
2022/10/21 10:14:34;;;;;;;18.20;11.67;;;15.10;99.90;;;;;;5022597;28;20316;-69
2022/10/21 10:17:22;;;;;;;17.40;10.73;;;15.10;99.90;;;;;;5005186;28;20627;-69
2022/10/21 10:20:03;;;;;;;22.10;10.60;;;15.20;99.90;;;;;;5016347;28;20325;-69
2022/10/21 10:22:43;;;;;;;18.47;11.03;;;15.20;99.90;;;;;;5022356;28;20319;-69
2022/10/21 10:25:17;;;;;;;19.60;10.67;;;15.20;99.90;;;;;;5019279;28;20280;-69
2022/10/21 10:27:54;;;;;;;16.80;10.90;;;15.20;99.90;;;;;;5032622;28;20295;-69
2022/10/21 10:30:22;;;;;;;13.60;9.83;;;15.20;99.90;;;;;;5010738;28;20041;-69
2022/10/21 10:32:51;;;;;;;19.97;10.37;;;15.20;99.90;;;;;;5013175;28;20689;-69
2022/10/21 10:35:24;;;;;;;17.23;10.10;;;15.20;99.90;;;;;;5033221;28;20276;-70
2022/10/21 10:37:50;;;;;;;15.73;10.50;;;15.20;99.90;;;;;;5006935;28;20291;-70
2022/10/21 10:40:37;;;;;;;18.00;10.47;;;15.30;99.90;;;;;;5014087;28;20288;-70
2022/10/21 10:43:22;;;;;;;17.40;9.97;;;15.30;99.90;;;;;;5025026;28;20288;-70
2022/10/21 10:46:00;;;;;;;16.45;10.23;;;15.40;99.90;;;;;;5033833;28;20655;-70
2022/10/21 10:48:37;;;;;;;21.70;10.53;;;15.40;99.90;;;;;;5024985;28;20075;-70
2022/10/21 10:51:28;;;;;;;16.50;8.80;;;15.50;99.90;;;;;;5024585;28;20372;-70
2022/10/21 10:54:05;;;;;;;13.60;8.20;;;15.50;99.90;;;;;;5008786;28;20284;-69
2022/10/21 10:56:40;;;;;;;14.20;8.70;;;15.60;99.90;;;;;;4990427;28;590585;-70
2022/10/21 10:59:31;;;;;;;12.57;8.70;;;15.60;99.90;;;;;;5025888;28;20310;-70
2022/10/21 11:02:09;;;;;;;14.90;7.43;;;15.70;99.90;;;;;;5022858;28;20397;-70
2022/10/21 11:04:52;;;;;;;14.63;8.20;;;15.70;99.90;;;;;;5024112;28;20314;-70
2022/10/21 11:07:54;;;;;;;14.80;7.40;;;15.80;99.90;;;;;;5030963;28;20705;-70
2022/10/21 11:10:36;;;;;;;10.93;7.57;;;15.80;99.90;;;;;;5031752;28;20283;-70
2022/10/21 11:13:08;;;;;;;12.90;8.20;;;15.80;99.90;;;;;;5042338;28;20308;-70
2022/10/21 11:15:54;;;;;;;17.70;8.53;;;15.90;99.90;;;;;;5026116;28;20647;-70
2022/10/21 11:18:20;;;;;;;13.63;7.53;;;15.90;99.90;;;;;;5034346;28;20287;-70
2022/10/21 11:21:30;;;;;;;12.73;7.37;;;16.00;99.90;;;;;;5012562;28;20292;-70
2022/10/21 11:24:42;;;;;;;14.60;7.00;;;16.00;99.90;;;;;;5025949;28;20038;-70
2022/10/21 11:27:26;;;;;;;12.17;7.67;;;16.10;99.90;;;;;;5024145;28;20315;-70
2022/10/21 11:29:58;;;;;;;11.83;7.63;;;16.10;99.90;;;;;;5008902;28;20591;-70
2022/10/21 11:32:36;;;;;;;11.63;7.67;;;16.20;99.90;;;;;;5007856;28;20313;-70
2022/10/21 11:35:35;;;;;;;13.97;7.23;;;16.20;99.90;;;;;;5025450;28;20279;-70
2022/10/21 11:38:39;;;;;;;13.50;7.17;;;16.20;99.90;;;;;;5025327;28;20284;-70
2022/10/21 11:41:36;;;;;;;12.10;6.77;;;16.20;99.90;;;;;;5021084;28;20268;-70
2022/10/21 11:44:19;;;;;;;10.03;6.20;;;16.20;99.90;;;;;;5024346;28;21041;-70
2022/10/21 11:46:51;;;;;;;10.67;6.03;;;16.10;99.90;;;;;;5024784;28;20375;-70
2022/10/21 11:49:32;;;;;;;11.83;6.67;;;16.10;99.90;;;;;;5044232;28;20268;-70
2022/10/21 11:52:31;;;;;;;16.90;7.13;;;16.20;99.90;;;;;;5032360;28;20307;-70
2022/10/21 11:55:15;;;;;;;9.33;5.77;;;16.20;99.90;;;;;;5025633;28;20276;-70
2022/10/21 11:58:07;;;;;;;11.33;6.27;;;16.20;99.90;;;;;;5026063;28;20300;-70
2022/10/21 12:00:47;;;;;;;11.27;6.60;;;16.30;99.90;;;;;;5021329;28;20299;-70
2022/10/21 12:03:25;;;;;;;11.17;6.70;;;16.30;99.90;;;;;;5022073;28;20284;-70
2022/10/21 12:06:03;;;;;;;11.03;5.97;;;16.30;99.90;;;;;;5007573;28;20338;-69
2022/10/21 12:08:38;;;;;;;11.27;6.33;;;16.40;99.90;;;;;;5024265;28;20300;-70
2022/10/21 12:11:20;;;;;;;10.95;6.93;;;16.40;99.90;;;;;;5025035;28;20333;-73
2022/10/21 12:13:54;;;;;;;11.00;6.27;;;16.40;99.90;;;;;;5022756;28;20045;-70
2022/10/21 12:16:27;;;;;;;12.07;6.17;;;16.40;99.90;;;;;;5024669;28;20276;-69
2022/10/21 12:18:56;;;;;;;12.20;7.17;;;16.40;99.90;;;;;;5024067;28;20791;-70
2022/10/21 12:21:38;;;;;;;10.37;5.77;;;16.50;99.90;;;;;;5024079;28;20359;-69
2022/10/21 12:24:19;;;;;;;11.93;6.30;;;16.50;99.90;;;;;;5022642;28;20292;-69
2022/10/21 12:27:11;;;;;;;13.10;6.27;;;16.50;99.90;;;;;;5022390;28;20307;-69
2022/10/21 12:30:02;;;;;;;12.37;6.43;;;16.50;99.90;;;;;;5006861;28;20393;-69
2022/10/21 12:32:46;;;;;;;11.97;6.10;;;16.50;99.90;;;;;;5023045;28;20300;-70
2022/10/21 12:35:14;;;;;;;10.20;5.97;;;16.60;99.90;;;;;;5023468;28;20696;-70
2022/10/21 12:38:03;;;;;;;9.53;5.93;;;16.70;99.90;;;;;;5023361;28;20129;-69
2022/10/21 12:40:29;;;;;;;10.40;6.50;;;16.90;99.90;;;;;;5003361;28;20048;-70
2022/10/21 12:43:04;;;;;;;14.00;5.97;;;17.00;99.90;;;;;;5041259;28;20657;-70
2022/10/21 12:45:31;;;;;;;;;;;17.20;99.90;;;;;;5025416;28;20161;-70
2022/10/21 12:47:58;;;;;;;15.73;6.97;;;17.30;99.90;;;;;;5023823;28;19921;-70